Time;durP1;ratioP1;P1;durP2;ratioP2;P2;SDS_P1;SDS_P2;PMS_P1;PMS_P2;Temp;Humidity;BMP_temperature;BMP_pressure;BME280_temperature;BME280_humidity;BME280_pressure;Samples;Min_cycle;Max_cycle;Signal;HPM_P1;HPM_P2
2022/11/18 00:00:44;;;;;;;;;;;;;;;19.98;48.67;99206.13;5146059;27;19923;-39
2022/11/18 00:03:09;;;;;;;;;;;;;;;19.97;48.72;99212.78;5139418;27;20268;-40
2022/11/18 00:05:35;;;;;;;;;;;;;;;19.98;48.75;99217.19;5137574;27;19930;-39
2022/11/18 00:08:00;;;;;;;;;;;;;;;19.96;48.43;99211.97;5140054;27;20055;-39
2022/11/18 00:10:26;;;;;;;;;;;;;;;19.97;48.43;99215.56;5141759;27;19930;-39
2022/11/18 00:15:37;;;;;;;;;;;;;;;19.97;48.85;99224.66;5136037;27;19963;-39
2022/11/18 00:18:03;;;;;;;;;;;;;;;19.97;48.47;99221.09;5142960;27;19927;-39
2022/11/18 00:20:28;;;;;;;;;;;;;;;19.97;48.95;99230.19;5143892;27;20336;-39
2022/11/18 00:22:54;;;;;;;;;;;;;;;19.97;48.57;99227.41;5140390;27;19923;-39
2022/11/18 00:25:19;;;;;;;;;;;;;;;19.96;48.87;99234.09;5138401;27;19924;-39
2022/11/18 00:27:45;;;;;;;;;;;;;;;19.97;48.65;99234.91;5140503;27;20287;-39
2022/11/18 00:30:10;;;;;;;;;;;;;;;19.96;48.78;99236.84;5136779;27;19927;-38
2022/11/18 00:32:36;;;;;;;;;;;;;;;19.97;48.60;99234.91;5143474;27;19927;-38
2022/11/18 00:35:01;;;;;;;;;;;;;;;19.97;48.58;99234.91;5136564;27;19931;-39
2022/11/18 00:37:27;;;;;;;;;;;;;;;19.96;48.61;99231.31;5143134;27;19934;-37
2022/11/18 00:39:53;;;;;;;;;;;;;;;19.96;48.56;99236.03;5142191;27;20362;-39
2022/11/18 00:45:04;;;;;;;;;;;;;;;19.96;48.63;99234.09;5135922;27;19970;-39
2022/11/18 00:47:29;;;;;;;;;;;;;;;19.96;48.68;99242.38;5137814;27;19923;-37
2022/11/18 00:49:55;;;;;;;;;;;;;;;19.96;48.52;99239.63;5135367;27;19968;-39
2022/11/18 00:52:20;;;;;;;;;;;;;;;19.97;48.77;99243.19;5140756;27;19930;-40
2022/11/18 00:54:46;;;;;;;;;;;;;;;19.96;48.78;99242.38;5139761;27;19924;-39
2022/11/18 00:57:11;;;;;;;;;;;;;;;19.96;48.61;99250.66;5137757;27;19933;-39
2022/11/18 00:59:37;;;;;;;;;;;;;;;19.96;48.53;99250.66;5138256;27;19986;-38
2022/11/18 01:02:03;;;;;;;;;;;;;;;19.96;48.65;99256.19;5134851;27;19979;-38
2022/11/18 01:04:28;;;;;;;;;;;;;;;19.96;48.63;99261.72;5139314;27;19924;-39
2022/11/18 01:06:54;;;;;;;;;;;;;;;19.96;48.50;99270.00;5139171;27;19927;-38
2022/11/18 01:09:19;;;;;;;;;;;;;;;19.95;48.77;99273.09;5136379;27;19939;-39
2022/11/18 01:14:30;;;;;;;;;;;;;;;19.96;48.57;99274.72;5138865;27;20345;-38
2022/11/18 01:16:56;;;;;;;;;;;;;;;19.96;48.69;99277.50;5136850;27;19924;-38
2022/11/18 01:19:22;;;;;;;;;;;;;;;19.95;48.67;99273.09;5136244;27;19927;-39
2022/11/18 01:21:48;;;;;;;;;;;;;;;19.96;48.68;99274.72;5135030;27;20375;-38
2022/11/18 01:24:14;;;;;;;;;;;;;;;19.95;48.87;99270.34;5137449;27;19938;-39
2022/11/18 01:26:39;;;;;;;;;;;;;;;19.95;48.78;99276.69;5136835;27;19991;-38
2022/11/18 01:29:05;;;;;;;;;;;;;;;19.95;48.68;99275.88;5137175;27;19923;-37
2022/11/18 01:31:30;;;;;;;;;;;;;;;19.96;48.78;99280.25;5140461;27;20379;-38
2022/11/18 01:33:56;;;;;;;;;;;;;;;19.95;48.67;99279.44;5134631;27;19923;-39
2022/11/18 01:36:22;;;;;;;;;;;;;;;19.95;48.77;99284.16;5136842;27;19972;-39
2022/11/18 01:38:48;;;;;;;;;;;;;;;19.95;48.59;99278.63;5135640;27;19931;-38
2022/11/18 01:41:14;;;;;;;;;;;;;;;19.95;48.63;99284.97;5139719;27;19969;-37
2022/11/18 01:43:56;;;;;;;;;;;;;;;19.95;48.76;99290.50;5133855;27;20434;-39
2022/11/18 01:46:22;;;;;;;;;;;;;;;19.94;48.77;99288.84;5132830;27;19976;-39
2022/11/18 01:48:49;;;;;;;;;;;;;;;19.95;48.54;99289.69;5132697;27;20335;-39
2022/11/18 01:51:15;;;;;;;;;;;;;;;19.94;48.60;99288.03;5141909;27;20106;-39
2022/11/18 01:53:42;;;;;;;;;;;;;;;19.95;48.75;99284.97;5137333;27;20348;-40
2022/11/18 01:56:10;;;;;;;;;;;;;;;19.94;48.60;99288.84;5134232;27;20009;-39
2022/11/18 01:58:36;;;;;;;;;;;;;;;19.95;48.69;99297.97;5140975;27;19965;-40
2022/11/18 02:01:03;;;;;;;;;;;;;;;19.94;48.57;99288.84;5136558;27;19978;-39
2022/11/18 02:03:28;;;;;;;;;;;;;;;19.94;48.85;99299.91;5138922;27;20413;-39
2022/11/18 02:05:54;;;;;;;;;;;;;;;19.94;48.64;99305.44;5143064;27;19923;-40
2022/11/18 02:08:19;;;;;;;;;;;;;;;19.94;48.64;99308.19;5136093;27;20349;-39
2022/11/18 02:10:45;;;;;;;;;;;;;;;19.94;48.72;99310.13;5133209;27;19938;-39
2022/11/18 02:13:10;;;;;;;;;;;;;;;19.95;48.52;99317.31;5138509;27;19931;-38
2022/11/18 02:15:56;;;;;;;;;;;;;;;19.94;48.57;99316.47;5132486;27;19923;-39
2022/11/18 02:18:25;;;;;;;;;;;;;;;19.93;48.64;99325.91;5137613;27;19988;-38
2022/11/18 02:20:50;;;;;;;;;;;;;;;19.93;48.60;99325.91;5135569;27;20340;-39
2022/11/18 02:23:29;;;;;;;;;;;;;;;19.94;48.58;99327.53;5139739;27;20382;-39
2022/11/18 02:26:14;;;;;;;;;;;;;;;19.94;48.92;99322.00;5138595;27;20010;-39
2022/11/18 02:28:52;;;;;;;;;;;;;;;19.94;48.59;99332.25;5138047;27;20191;-39
2022/11/18 02:31:35;;;;;;;;;;;;;;;19.94;48.83;99330.28;5139895;27;20411;-39
2022/11/18 02:34:20;;;;;;;;;;;;;;;19.93;48.63;99327.88;5134702;27;19989;-38
2022/11/18 02:36:50;;;;;;;;;;;;;;;19.94;48.72;99332.25;5142133;27;20048;-38
2022/11/18 02:39:18;;;;;;;;;;;;;;;19.93;48.87;99331.44;5137289;27;19955;-39
2022/11/18 02:41:44;;;;;;;;;;;;;;;19.93;48.70;99334.19;5142093;27;20279;-39
2022/11/18 02:44:11;;;;;;;;;;;;;;;19.94;48.63;99337.78;5139227;27;20358;-39
2022/11/18 02:46:37;;;;;;;;;;;;;;;19.94;48.71;99335.00;5139119;27;19958;-38
2022/11/18 02:49:03;;;;;;;;;;;;;;;19.93;48.84;99334.19;5138181;27;19932;-39
2022/11/18 02:51:29;;;;;;;;;;;;;;;19.94;48.60;99343.28;5144836;27;20032;-39
2022/11/18 02:53:55;;;;;;;;;;;;;;;19.93;48.71;99342.50;5141381;27;20317;-38
2022/11/18 02:56:20;;;;;;;;;;;;;;;19.94;48.69;99346.06;5139584;27;19923;-38
2022/11/18 02:58:46;;;;;;;;;;;;;;;19.93;48.77;99350.78;5136267;27;20516;-39
2022/11/18 03:01:14;;;;;;;;;;;;;;;19.92;48.59;99349.16;5143545;27;19949;-39
2022/11/18 03:03:40;;;;;;;;;;;;;;;19.93;48.58;99353.53;5143411;27;20049;-39
2022/11/18 03:06:24;;;;;;;;;;;;;;;19.93;48.54;99358.25;5141933;27;19949;-39
2022/11/18 03:08:52;;;;;;;;;;;;;;;19.93;48.64;99355.50;5141408;27;19965;-39
2022/11/18 03:11:19;;;;;;;;;;;;;;;19.93;48.84;99352.72;5141095;27;20019;-38
2022/11/18 03:13:48;;;;;;;;;;;;;;;19.94;48.72;99362.63;5144993;27;19967;-38
2022/11/18 03:16:16;;;;;;;;;;;;;;;19.93;48.70;99364.59;5142067;27;20410;-39
2022/11/18 03:18:44;;;;;;;;;;;;;;;19.94;48.84;99368.97;5138608;27;19967;-39
2022/11/18 03:21:12;;;;;;;;;;;;;;;19.93;48.71;99367.34;5139892;27;20370;-39
2022/11/18 03:23:40;;;;;;;;;;;;;;;19.94;48.60;99373.69;5138546;27;19984;-39
2022/11/18 03:26:06;;;;;;;;;;;;;;;19.93;48.60;99369.31;5143387;27;19983;-39
2022/11/18 03:28:35;;;;;;;;;;;;;;;19.93;48.86;99372.06;5137714;27;19959;-39
2022/11/18 03:31:20;;;;;;;;;;;;;;;19.92;48.56;99376.78;5137292;27;20407;-38
2022/11/18 03:33:47;;;;;;;;;;;;;;;19.92;48.56;99374.03;5137064;27;20006;-39
2022/11/18 03:36:13;;;;;;;;;;;;;;;19.93;48.49;99377.59;5139503;27;20025;-38
2022/11/18 03:38:41;;;;;;;;;;;;;;;19.92;48.81;99382.31;5137080;27;19927;-39
2022/11/18 03:41:07;;;;;;;;;;;;;;;19.92;48.56;99398.88;5141600;27;19970;-38
2022/11/18 03:43:34;;;;;;;;;;;;;;;19.92;48.63;99396.13;5137312;27;20340;-40
2022/11/18 03:46:01;;;;;;;;;;;;;;;19.94;48.83;99395.78;5143982;27;20647;-39
2022/11/18 03:48:28;;;;;;;;;;;;;;;19.94;48.80;99401.31;5131880;27;19969;-39
2022/11/18 03:50:56;;;;;;;;;;;;;;;19.92;48.81;99401.66;5139492;27;19923;-39
2022/11/18 03:53:22;;;;;;;;;;;;;;;19.93;48.66;99408.00;5140492;27;20340;-37
2022/11/18 03:55:50;;;;;;;;;;;;;;;19.92;48.72;99404.41;5138933;27;20454;-37
2022/11/18 03:58:17;;;;;;;;;;;;;;;19.93;48.79;99408.00;5134400;27;19958;-40
2022/11/18 04:00:44;;;;;;;;;;;;;;;19.92;48.74;99411.91;5144432;27;20410;-39
2022/11/18 04:03:10;;;;;;;;;;;;;;;19.92;48.64;99415.47;5134873;27;20018;-38
2022/11/18 04:05:36;;;;;;;;;;;;;;;19.92;48.76;99418.22;5141307;27;19923;-39
2022/11/18 04:08:03;;;;;;;;;;;;;;;19.92;48.97;99421.00;5141106;27;20391;-39
2022/11/18 04:10:29;;;;;;;;;;;;;;;19.92;48.52;99425.72;5139241;27;19966;-38
2022/11/18 04:12:57;;;;;;;;;;;;;;;19.91;48.64;99427.66;5139402;27;20378;-39
2022/11/18 04:15:31;;;;;;;;;;;;;;;19.92;48.77;99437.56;5137773;27;20404;-39
2022/11/18 04:17:57;;;;;;;;;;;;;;;19.93;48.70;99439.19;5136827;27;19931;-39
2022/11/18 04:20:22;;;;;;;;;;;;;;;19.92;48.83;99439.53;5140415;27;19992;-38
2022/11/18 04:22:48;;;;;;;;;;;;;;;19.92;48.59;99440.34;5140282;27;19985;-39
2022/11/18 04:25:14;;;;;;;;;;;;;;;19.92;48.52;99445.84;5136407;27;19931;-38
2022/11/18 04:27:39;;;;;;;;;;;;;;;19.92;48.60;99451.38;5141697;27;20388;-39
2022/11/18 04:30:05;;;;;;;;;;;;;;;19.92;48.58;99445.06;5137453;27;19976;-37
2022/11/18 04:32:30;;;;;;;;;;;;;;;19.91;48.72;99447.00;5145841;27;19931;-38
2022/11/18 04:34:56;;;;;;;;;;;;;;;19.91;48.53;99452.53;5136485;27;20279;-38
2022/11/18 04:37:22;;;;;;;;;;;;;;;19.92;48.56;99456.09;5137045;27;19923;-38
2022/11/18 04:39:47;;;;;;;;;;;;;;;19.92;48.80;99453.34;5141192;27;19923;-39
2022/11/18 04:42:13;;;;;;;;;;;;;;;19.92;48.70;99461.63;5139100;27;19979;-39
2022/11/18 04:44:38;;;;;;;;;;;;;;;19.91;48.69;99458.06;5140185;27;19927;-37
2022/11/18 04:47:04;;;;;;;;;;;;;;;19.91;48.57;99469.09;5137385;27;20432;-37
2022/11/18 04:49:30;;;;;;;;;;;;;;;19.92;48.81;99475.44;5139727;27;19938;-39
2022/11/18 04:51:56;;;;;;;;;;;;;;;19.91;48.70;99468.28;5141968;27;19932;-39
2022/11/18 04:54:21;;;;;;;;;;;;;;;19.92;48.61;99475.44;5135218;27;20421;-39
2022/11/18 04:56:47;;;;;;;;;;;;;;;19.92;48.58;99475.44;5137797;27;19931;-38
2022/11/18 04:59:16;;;;;;;;;;;;;;;19.91;48.57;99469.09;5135958;27;19930;-40
2022/11/18 05:01:42;;;;;;;;;;;;;;;19.91;48.70;99480.16;5138060;27;19931;-39
2022/11/18 05:04:11;;;;;;;;;;;;;;;19.91;48.66;99482.91;5137151;27;19935;-39
2022/11/18 05:06:36;;;;;;;;;;;;;;;19.91;48.52;99480.16;5144702;27;19930;-39
2022/11/18 05:09:02;;;;;;;;;;;;;;;19.91;48.63;99477.41;5147029;27;19923;-38
2022/11/18 05:14:13;;;;;;;;;;;;;;;19.92;48.80;99492.03;5120042;27;19966;-39
2022/11/18 05:16:39;;;;;;;;;;;;;;;19.91;48.69;99482.09;5145925;27;19978;-39
2022/11/18 05:19:04;;;;;;;;;;;;;;;19.92;48.68;99492.81;5135829;27;19923;-38
2022/11/18 05:21:30;;;;;;;;;;;;;;;19.91;48.86;99487.63;5139357;27;20609;-38
2022/11/18 05:23:57;;;;;;;;;;;;;;;19.91;48.86;99493.97;5140090;27;19945;-39
2022/11/18 05:26:23;;;;;;;;;;;;;;;19.92;48.64;99500.31;5143242;27;19923;-37
2022/11/18 05:28:48;;;;;;;;;;;;;;;19.92;48.91;99492.03;5140825;27;19954;-37
2022/11/18 05:31:14;;;;;;;;;;;;;;;19.91;48.92;99490.41;5138713;27;20279;-39
2022/11/18 05:33:40;;;;;;;;;;;;;;;19.91;48.79;99501.44;5138102;27;19977;-38
2022/11/18 05:36:06;;;;;;;;;;;;;;;19.91;48.72;99502.25;5134692;27;19927;-40
2022/11/18 05:38:32;;;;;;;;;;;;;;;19.91;48.82;99504.22;5138569;27;19954;-40
2022/11/18 05:40:58;;;;;;;;;;;;;;;19.91;48.66;99504.22;5139052;27;20203;-39
2022/11/18 05:43:23;;;;;;;;;;;;;;;19.91;48.68;99509.75;5138245;27;19927;-37
2022/11/18 05:45:49;;;;;;;;;;;;;;;19.91;48.64;99518.03;5136227;27;19923;-39
2022/11/18 05:48:15;;;;;;;;;;;;;;;19.91;48.73;99515.25;5132939;27;19932;-38
2022/11/18 05:50:40;;;;;;;;;;;;;;;19.92;48.88;99519.66;5136395;27;19923;-38
2022/11/18 05:53:07;;;;;;;;;;;;;;;19.91;48.62;99521.59;5143876;27;19923;-39
2022/11/18 05:55:34;;;;;;;;;;;;;;;19.91;48.73;99523.56;5138066;27;19955;-38
2022/11/18 05:58:00;;;;;;;;;;;;;;;19.90;48.55;99525.47;5134389;27;19931;-39
2022/11/18 06:00:25;;;;;;;;;;;;;;;19.90;48.74;99539.28;5139450;27;19927;-38
2022/11/18 06:02:51;;;;;;;;;;;;;;;19.90;48.57;99538.47;5136095;27;19924;-39
2022/11/18 06:05:17;;;;;;;;;;;;;;;19.91;48.64;99542.91;5141882;27;19923;-39
2022/11/18 06:07:43;;;;;;;;;;;;;;;19.90;48.63;99553.09;5139546;27;19923;-39
2022/11/18 06:10:09;;;;;;;;;;;;;;;19.91;48.52;99551.19;5133191;27;21097;-39
2022/11/18 06:12:36;;;;;;;;;;;;;;;19.91;48.85;99551.19;5136675;27;19923;-39
2022/11/18 06:15:17;;;;;;;;;;;;;;;19.91;48.83;99556.72;5131377;27;20443;-39
2022/11/18 06:17:59;;;;;;;;;;;;;;;19.90;48.60;99561.38;5139939;27;20046;-39
2022/11/18 06:20:24;;;;;;;;;;;;;;;19.90;48.33;99557.81;5134579;27;19963;-38
2022/11/18 06:22:51;;;;;;;;;;;;;;;19.91;48.72;99565.00;5138419;27;20275;-38
2022/11/18 06:25:16;;;;;;;;;;;;;;;19.90;48.71;99571.63;5135349;27;19962;-40
2022/11/18 06:27:42;;;;;;;;;;;;;;;19.90;48.89;99577.97;5136511;27;19931;-37
2022/11/18 06:30:08;;;;;;;;;;;;;;;19.90;48.66;99575.22;5133365;27;19923;-39
2022/11/18 06:32:33;;;;;;;;;;;;;;;19.91;48.58;99581.56;5132483;27;20501;-40
2022/11/18 06:34:59;;;;;;;;;;;;;;;19.89;48.65;99581.06;5134458;27;19984;-40
2022/11/18 06:37:25;;;;;;;;;;;;;;;19.90;48.69;99579.91;5135821;27;20152;-38
2022/11/18 06:39:50;;;;;;;;;;;;;;;19.90;48.75;99585.44;5134772;27;19930;-39
2022/11/18 06:45:02;;;;;;;;;;;;;;;19.90;48.70;99585.44;5135881;27;20015;-39
2022/11/18 06:47:27;;;;;;;;;;;;;;;19.90;48.67;99588.22;5132972;27;20258;-38
2022/11/18 06:49:53;;;;;;;;;;;;;;;19.90;48.63;99599.25;5138072;27;19954;-39
2022/11/18 06:52:19;;;;;;;;;;;;;;;19.90;48.69;99602.03;5123980;27;19932;-39
2022/11/18 06:54:44;;;;;;;;;;;;;;;19.90;48.53;99605.59;5131419;27;20402;-40
2022/11/18 06:57:10;;;;;;;;;;;;;;;19.91;48.57;99611.97;5125286;27;19923;-39
2022/11/18 06:59:35;;;;;;;;;;;;;;;19.90;48.63;99616.66;5117899;27;19931;-39
2022/11/18 07:02:01;;;;;;;;;;;;;;;19.89;48.82;99619.75;5122810;27;20334;-40
2022/11/18 07:04:26;;;;;;;;;;;;;;;19.86;49.79;99618.44;5111659;27;19939;-39
2022/11/18 07:06:52;;;;;;;;;;;;;;;19.90;49.47;99624.94;5121453;27;19938;-38
2022/11/18 07:09:17;;;;;;;;;;;;;;;19.92;49.19;99627.41;5123715;27;19946;-40
2022/11/18 07:11:44;;;;;;;;;;;;;;;19.91;49.31;99629.34;5136321;27;19975;-39
2022/11/18 07:14:09;;;;;;;;;;;;;;;19.92;49.17;99635.69;5133829;27;19931;-38
2022/11/18 07:16:35;;;;;;;;;;;;;;;19.92;49.11;99642.03;5128910;27;19924;-39
2022/11/18 07:19:01;;;;;;;;;;;;;;;19.92;49.17;99649.50;5126014;27;20394;-39
2022/11/18 07:21:27;;;;;;;;;;;;;;;19.92;49.02;99650.31;5127652;27;20317;-39
2022/11/18 07:23:53;;;;;;;;;;;;;;;19.93;48.96;99656.66;5132416;27;19985;-39
2022/11/18 07:26:19;;;;;;;;;;;;;;;19.92;49.10;99658.59;5120221;27;19927;-39
2022/11/18 07:28:44;;;;;;;;;;;;;;;19.93;49.07;99663.00;5128880;27;19988;-39
2022/11/18 07:31:11;;;;;;;;;;;;;;;19.94;48.91;99666.56;5119529;27;20006;-39
2022/11/18 07:33:37;;;;;;;;;;;;;;;19.94;48.94;99663.81;5119698;27;20435;-38
2022/11/18 07:36:03;;;;;;;;;;;;;;;19.93;49.23;99668.53;5121343;27;19938;-39
2022/11/18 07:38:29;;;;;;;;;;;;;;;19.94;49.00;99675.69;5126216;27;19931;-39
2022/11/18 07:40:55;;;;;;;;;;;;;;;19.95;49.14;99674.56;5132363;27;19923;-37
2022/11/18 07:43:20;;;;;;;;;;;;;;;19.95;48.96;99687.56;5124944;27;19923;-39
2022/11/18 07:45:46;;;;;;;;;;;;;;;19.95;49.01;99685.63;5119214;27;19991;-39
2022/11/18 07:48:11;;;;;;;;;;;;;;;19.96;48.92;99692.78;5128275;27;20355;-39
2022/11/18 07:50:37;;;;;;;;;;;;;;;19.96;49.06;99690.00;5119899;27;19923;-39
2022/11/18 07:53:03;;;;;;;;;;;;;;;19.96;48.85;99698.28;5131110;27;20126;-39
2022/11/18 07:55:28;;;;;;;;;;;;;;;19.97;48.91;99696.34;5130686;27;20252;-37
2022/11/18 07:57:57;;;;;;;;;;;;;;;19.97;48.90;99696.34;5125715;27;19931;-38
2022/11/18 08:00:23;;;;;;;;;;;;;;;19.98;48.88;99697.97;5117622;27;19931;-38
2022/11/18 08:02:49;;;;;;;;;;;;;;;19.98;49.00;99697.97;5118747;27;21524;-40
2022/11/18 08:05:14;;;;;;;;;;;;;;;19.99;48.73;99696.84;5123622;27;19966;-39
2022/11/18 08:07:43;;;;;;;;;;;;;;;20.01;48.94;99700.91;5126189;27;20026;-40
2022/11/18 08:10:09;;;;;;;;;;;;;;;20.01;48.81;99705.63;5123017;27;19927;-39
2022/11/18 08:12:34;;;;;;;;;;;;;;;20.01;48.73;99708.41;5122875;27;20359;-39
2022/11/18 08:15:00;;;;;;;;;;;;;;;20.00;48.95;99715.88;5125178;27;19939;-39
2022/11/18 08:17:26;;;;;;;;;;;;;;;20.01;48.85;99713.94;5127013;27;19927;-39
2022/11/18 08:19:51;;;;;;;;;;;;;;;20.01;49.06;99727.75;5123093;27;19927;-38
2022/11/18 08:22:19;;;;;;;;;;;;;;;20.01;48.79;99724.97;5119898;27;19932;-38
2022/11/18 08:24:45;;;;;;;;;;;;;;;20.01;48.87;99733.28;5119026;27;20014;-39
2022/11/18 08:27:11;;;;;;;;;;;;;;;20.01;49.02;99736.84;5122194;27;20034;-39
2022/11/18 08:29:36;;;;;;;;;;;;;;;20.01;48.95;99731.31;5121114;27;20435;-38
2022/11/18 08:32:02;;;;;;;;;;;;;;;20.02;49.02;99741.25;5123724;27;19992;-39
2022/11/18 08:34:27;;;;;;;;;;;;;;;20.02;48.91;99749.53;5117489;27;19931;-38
2022/11/18 08:36:53;;;;;;;;;;;;;;;20.02;49.00;99744.00;5127893;27;19934;-37
2022/11/18 08:39:18;;;;;;;;;;;;;;;20.02;48.89;99749.53;5127601;27;19923;-39
2022/11/18 08:41:45;;;;;;;;;;;;;;;20.02;48.98;99746.75;5121952;27;19945;-38
2022/11/18 08:44:12;;;;;;;;;;;;;;;20.07;49.06;99754.09;5115925;27;20033;-39
2022/11/18 08:46:38;;;;;;;;;;;;;;;20.06;48.84;99755.25;5119224;27;20270;-39
2022/11/18 08:49:03;;;;;;;;;;;;;;;20.08;48.89;99757.69;5119212;27;20182;-40
2022/11/18 08:51:29;;;;;;;;;;;;;;;20.06;48.99;99752.47;5124838;27;19966;-39
2022/11/18 08:53:54;;;;;;;;;;;;;;;20.07;48.91;99756.06;5120275;27;19923;-39
2022/11/18 08:56:21;;;;;;;;;;;;;;;20.08;48.98;99757.69;5122848;27;19954;-39
2022/11/18 08:58:46;;;;;;;;;;;;;;;20.09;48.96;99757.38;5121342;27;20015;-40
2022/11/18 09:01:12;;;;;;;;;;;;;;;20.09;49.06;99762.09;5123291;27;20142;-39
2022/11/18 09:03:38;;;;;;;;;;;;;;;20.09;48.91;99757.38;5119028;27;20303;-38
2022/11/18 09:06:12;;;;;;;;;;;;;;;20.10;49.09;99766.50;5118378;27;19988;-38
2022/11/18 09:08:37;;;;;;;;;;;;;;;20.10;49.12;99758.19;5122926;27;20395;-39
2022/11/18 09:11:04;;;;;;;;;;;;;;;20.10;49.05;99766.50;5119982;27;19931;-39
2022/11/18 09:13:29;;;;;;;;;;;;;;;20.09;48.88;99765.69;5126188;27;20274;-39
2022/11/18 09:16:15;;;;;;;;;;;;;;;20.15;50.03;99772.69;5125159;27;19942;-43
2022/11/18 09:18:40;;;;;;;;;;;;;;;20.26;49.72;99778.81;5130550;27;21267;-40
2022/11/18 09:21:07;;;;;;;;;;;;;;;20.20;49.30;99772.56;5131707;27;19931;-39
2022/11/18 09:23:34;;;;;;;;;;;;;;;20.19;49.82;99778.41;5122303;27;19977;-40
2022/11/18 09:26:00;;;;;;;;;;;;;;;20.16;49.90;99776.28;5128107;27;21931;-39
2022/11/18 09:28:26;;;;;;;;;;;;;;;20.12;50.01;99789.09;5130148;27;20402;-38
2022/11/18 09:30:51;;;;;;;;;;;;;;;20.15;49.86;99785.72;5127746;27;19931;-40
2022/11/18 09:33:17;;;;;;;;;;;;;;;20.16;49.63;99787.34;5117399;27;19938;-38
2022/11/18 09:35:46;;;;;;;;;;;;;;;20.17;49.58;99789.81;5115497;27;19965;-39
2022/11/18 09:38:11;;;;;;;;;;;;;;;20.18;49.51;99794.19;5109361;27;19935;-39
2022/11/18 09:40:57;;;;;;;;;;;;;;;20.19;49.33;99793.06;5114324;27;20355;-40
2022/11/18 09:43:42;;;;;;;;;;;;;;;20.17;49.58;99800.84;5121825;27;19978;-40
2022/11/18 09:46:27;;;;;;;;;;;;;;;20.17;49.49;99800.84;5124505;27;20394;-39
2022/11/18 09:49:26;;;;;;;;;;;;;;;20.19;49.70;99803.31;5115345;27;20075;-39
2022/11/18 09:51:42;;;;;;;;;;;;;;;20.19;49.39;99808.84;5123991;27;20030;-38
2022/11/18 09:54:09;;;;;;;;;;;;;;;20.18;49.61;99808.00;5123206;27;19923;-39
2022/11/18 09:56:34;;;;;;;;;;;;;;;20.17;49.81;99814.69;5125833;27;20369;-38
2022/11/18 09:59:01;;;;;;;;;;;;;;;20.18;49.34;99807.19;5126833;27;19931;-38
2022/11/18 10:01:26;;;;;;;;;;;;;;;20.18;49.40;99813.53;5127895;27;20398;-39
2022/11/18 10:03:53;;;;;;;;;;;;;;;20.19;49.62;99819.88;5128688;27;19932;-39
2022/11/18 10:06:21;;;;;;;;;;;;;;;20.19;49.31;99822.66;5128708;27;19927;-39
2022/11/18 10:08:57;;;;;;;;;;;;;;;20.19;49.37;99826.22;5131530;27;19937;-39
2022/11/18 10:11:23;;;;;;;;;;;;;;;20.18;49.60;99821.84;5131876;27;19973;-37
2022/11/18 10:14:08;;;;;;;;;;;;;;;20.18;49.40;99832.09;5130719;27;20026;-38
2022/11/18 10:16:38;;;;;;;;;;;;;;;20.20;49.48;99835.34;5126710;27;20022;-39
2022/11/18 10:19:23;;;;;;;;;;;;;;;20.20;49.31;99835.34;5134515;27;19970;-39
2022/11/18 10:21:51;;;;;;;;;;;;;;;20.19;49.31;99840.06;5133266;27;19959;-39
2022/11/18 10:24:18;;;;;;;;;;;;;;;20.19;49.25;99842.00;5129891;27;20358;-39
2022/11/18 10:26:44;;;;;;;;;;;;;;;20.23;49.74;99843.81;5131403;27;20251;-39
2022/11/18 10:29:10;;;;;;;;;;;;;;;20.23;49.44;99841.06;5130137;27;20419;-39
2022/11/18 10:31:37;;;;;;;;;;;;;;;20.22;49.52;99849.69;5129726;27;19971;-38
2022/11/18 10:34:02;;;;;;;;;;;;;;;20.24;49.71;99845.44;5130163;27;20485;-39
2022/11/18 10:36:29;;;;;;;;;;;;;;;20.24;49.45;99850.16;5118891;27;19968;-40
2022/11/18 10:39:11;;;;;;;;;;;;;;;20.23;49.20;99859.59;5126269;27;20025;-41
2022/11/18 10:41:52;;;;;;;;;;;;;;;20.21;48.75;99853.56;5112752;27;20584;-39
2022/11/18 10:44:34;;;;;;;;;;;;;;;20.21;48.98;99862.69;5113006;27;20022;-37
2022/11/18 10:47:19;;;;;;;;;;;;;;;20.22;49.25;99871.78;5132360;27;20335;-40
2022/11/18 10:49:45;;;;;;;;;;;;;;;20.23;49.50;99859.59;5126221;27;20030;-38
2022/11/18 10:52:11;;;;;;;;;;;;;;;20.22;49.46;99860.72;5135160;27;19938;-39
2022/11/18 10:54:37;;;;;;;;;;;;;;;20.27;49.52;99866.94;5127469;27;19970;-39
2022/11/18 10:59:47;;;;;;;;;;;;;;;20.25;49.54;99871.16;5143742;27;20306;-39
2022/11/18 11:02:15;;;;;;;;;;;;;;;20.21;49.72;99867.41;5129851;27;20379;-39
2022/11/18 11:04:41;;;;;;;;;;;;;;;20.22;49.39;99869.03;5106723;27;19923;-39
2022/11/18 11:07:27;;;;;;;;;;;;;;;20.21;49.86;99868.22;5132735;27;20358;-39
2022/11/18 11:10:01;;;;;;;;;;;;;;;20.27;49.95;99869.72;5117036;27;19963;-38
2022/11/18 11:12:27;;;;;;;;;;;;;;;20.28;50.06;99871.34;5107618;27;20013;-38
2022/11/18 11:14:53;;;;;;;;;;;;;;;20.28;49.70;99873.28;5112057;27;20398;-39
2022/11/18 11:17:39;;;;;;;;;;;;;;;20.29;49.74;99874.91;5133275;27;19928;-39
2022/11/18 11:20:20;;;;;;;;;;;;;;;20.29;49.77;99875.75;5095779;27;19942;-39
2022/11/18 11:22:46;;;;;;;;;;;;;;;20.27;49.63;99875.25;5134778;27;19970;-39
2022/11/18 11:25:12;;;;;;;;;;;;;;;20.26;50.05;99878.34;5126255;27;19942;-39
2022/11/18 11:27:42;;;;;;;;;;;;;;;20.19;50.31;99876.00;5129288;27;19924;-38
2022/11/18 11:30:28;;;;;;;;;;;;;;;20.29;49.85;99874.91;5121699;27;19924;-38
2022/11/18 11:32:58;;;;;;;;;;;;;;;20.32;49.85;99873.47;5132538;27;19940;-39
2022/11/18 11:35:25;;;;;;;;;;;;;;;20.33;49.68;99877.88;5134497;27;19963;-39
2022/11/18 11:37:53;;;;;;;;;;;;;;;20.33;49.24;99875.94;5113122;27;19966;-39
2022/11/18 11:40:39;;;;;;;;;;;;;;;20.32;49.33;99879.00;5121317;27;20026;-40
2022/11/18 11:43:24;;;;;;;;;;;;;;;20.32;49.12;99874.31;5100539;27;19939;-39
2022/11/18 11:46:01;;;;;;;;;;;;;;;20.33;48.70;99881.47;5105525;27;19963;-39
2022/11/18 11:48:32;;;;;;;;;;;;;;;20.21;48.52;99878.47;5125152;27;19923;-39
2022/11/18 11:50:59;;;;;;;;;;;;;;;20.29;48.22;99881.28;5127824;27;20034;-38
2022/11/18 11:53:49;;;;;;;;;;;;;;;20.30;48.36;99877.38;5112540;27;19931;-39
2022/11/18 11:56:34;;;;;;;;;;;;;;;20.29;48.46;99878.53;5131023;27;20042;-39
2022/11/18 11:59:20;;;;;;;;;;;;;;;20.29;48.23;99878.53;5118023;27;19927;-39
2022/11/18 12:02:06;;;;;;;;;;;;;;;20.31;48.30;99883.72;5116727;27;20383;-38
2022/11/18 12:04:41;;;;;;;;;;;;;;;19.88;48.57;99888.88;5115139;27;20064;-40
2022/11/18 12:07:10;;;;;;;;;;;;;;;20.16;48.34;99886.84;5131727;27;20319;-39
2022/11/18 12:09:55;;;;;;;;;;;;;;;20.25;48.67;99885.81;5107603;27;19924;-39
2022/11/18 12:12:39;;;;;;;;;;;;;;;20.29;48.87;99889.59;5100105;28;20320;-39
2022/11/18 12:15:24;;;;;;;;;;;;;;;20.31;48.38;99897.56;5115669;28;19923;-39
2022/11/18 12:17:56;;;;;;;;;;;;;;;20.32;48.84;99887.31;5100245;28;20332;-37
2022/11/18 12:20:41;;;;;;;;;;;;;;;20.32;48.88;99890.88;5120261;28;19954;-39
2022/11/18 12:23:08;;;;;;;;;;;;;;;20.33;49.00;99886.16;5102937;28;19966;-38
2022/11/18 12:28:31;;;;;;;;;;;;;;;20.28;48.78;99906.47;5151977;27;20024;-36
2022/11/18 12:31:17;;;;;;;;;;;;;;;20.30;48.87;99891.22;5136904;27;19954;-33
2022/11/18 12:34:02;;;;;;;;;;;;;;;20.32;48.58;99901.94;5140651;27;20394;-32
2022/11/18 12:36:30;;;;;;;;;;;;;;;20.33;49.07;99903.56;5142630;27;19931;-36
2022/11/18 12:38:56;;;;;;;;;;;;;;;20.35;49.01;99908.81;5152309;27;19958;-33
2022/11/18 12:44:27;;;;;;;;;;;;;;;20.32;49.20;99906.66;5124330;27;19995;-33
2022/11/18 12:46:56;;;;;;;;;;;;;;;20.34;48.96;99905.22;5122490;27;20456;-33
2022/11/18 12:51:57;;;;;;;;;;;;;;;20.36;48.70;99911.25;5150879;27;19937;-39
2022/11/18 12:54:43;;;;;;;;;;;;;;;20.36;48.57;99899.38;5126432;27;20014;-38
2022/11/18 12:57:20;;;;;;;;;;;;;;;20.36;48.32;99902.16;5122713;27;20494;-39
2022/11/18 12:59:45;;;;;;;;;;;;;;;20.34;48.30;99918.25;5139892;27;20030;-40
2022/11/18 13:02:13;;;;;;;;;;;;;;;20.35;48.30;99917.09;5136171;27;20014;-40
2022/11/18 13:04:39;;;;;;;;;;;;;;;20.35;48.34;99917.09;5134868;27;19960;-39
2022/11/18 13:08:11;;;;;;;;;;;;;;;20.35;48.05;99922.63;5133636;27;19932;-40
2022/11/18 13:09:56;;;;;;;;;;;;;;;20.34;47.99;99924.59;5124776;27;19987;-40
2022/11/18 13:12:24;;;;;;;;;;;;;;;20.34;48.09;99921.81;5133333;27;21318;-39
2022/11/18 13:17:53;;;;;;;;;;;;;;;20.35;48.19;99926.22;5115079;27;20022;-39
2022/11/18 13:20:20;;;;;;;;;;;;;;;20.34;47.96;99929.31;5138470;27;19954;-38
2022/11/18 13:25:35;;;;;;;;;;;;;;;20.36;48.06;99941.66;5118964;27;20443;-39